createdAt,value
2022-12-14T00:02:10.067Z,22.30
2022-12-14T00:07:07.596Z,17.77
2022-12-14T00:12:04.933Z,15.70
2022-12-14T00:17:02.169Z,15.38
2022-12-14T00:21:59.399Z,16.70
2022-12-14T00:26:56.640Z,15.02
2022-12-14T00:31:53.896Z,14.77
2022-12-14T00:36:51.178Z,13.70
2022-12-14T00:41:48.429Z,19.17
2022-12-14T00:46:48.475Z,21.70
2022-12-14T00:51:45.802Z,18.17
2022-12-14T00:56:42.947Z,19.08
2022-12-14T01:01:40.274Z,18.80
2022-12-14T01:06:38.428Z,19.30
2022-12-14T01:11:35.818Z,16.17
2022-12-14T01:16:33.139Z,15.15
2022-12-14T01:21:30.800Z,15.00
2022-12-14T01:26:29.490Z,20.95
2022-12-14T01:31:29.811Z,26.53
2022-12-14T01:36:29.682Z,22.58
2022-12-14T01:41:39.387Z,23.98
2022-12-14T01:46:39.215Z,23.45
2022-12-14T01:51:37.963Z,19.85
2022-12-14T01:56:37.148Z,28.75
2022-12-14T02:01:34.836Z,24.38
2022-12-14T02:06:36.446Z,19.83
2022-12-14T02:11:54.504Z,22.42
2022-12-14T02:16:54.462Z,22.33
2022-12-14T02:27:27.787Z,20.45
2022-12-14T02:32:53.975Z,19.60
2022-12-14T02:38:17.972Z,21.58
2022-12-14T02:43:39.710Z,20.02
2022-12-14T02:48:44.185Z,20.80
2022-12-14T02:53:55.000Z,25.95
2022-12-14T02:58:53.829Z,20.35
2022-12-14T03:03:52.093Z,22.88
2022-12-14T03:08:49.766Z,19.63
2022-12-14T03:13:54.392Z,16.17
2022-12-14T03:19:03.428Z,20.35
2022-12-14T03:24:15.323Z,15.55
2022-12-14T03:34:22.291Z,20.15
2022-12-14T03:39:25.902Z,17.45
2022-12-14T03:44:49.342Z,17.83
2022-12-14T03:49:56.270Z,17.42
2022-12-14T03:55:07.750Z,18.45
2022-12-14T04:00:11.022Z,14.00
2022-12-14T04:05:16.341Z,20.55
2022-12-14T04:10:45.525Z,23.27
2022-12-14T04:16:02.899Z,14.55
2022-12-14T04:21:35.281Z,18.30
2022-12-14T04:26:37.748Z,19.27
2022-12-14T04:31:36.506Z,20.55
2022-12-14T04:36:33.871Z,13.70
2022-12-14T04:41:36.763Z,23.80
2022-12-14T04:46:40.757Z,18.33
2022-12-14T04:52:06.203Z,16.67
2022-12-14T04:57:26.638Z,32.17
2022-12-14T05:02:54.656Z,19.35
2022-12-14T05:08:31.041Z,15.70
2022-12-14T05:13:58.049Z,24.98
2022-12-14T05:18:55.623Z,22.25
2022-12-14T05:23:53.075Z,16.63
2022-12-14T05:28:50.635Z,29.35
2022-12-14T05:33:48.022Z,18.50
2022-12-14T05:38:45.378Z,19.95
2022-12-14T05:43:42.942Z,18.80
2022-12-14T05:48:42.672Z,16.05
2022-12-14T05:53:42.940Z,17.13
2022-12-14T05:58:40.335Z,17.20
2022-12-14T06:03:39.099Z,19.35
2022-12-14T06:08:39.550Z,20.52
2022-12-14T06:13:37.957Z,19.48
2022-12-14T06:18:35.704Z,18.60
2022-12-14T06:23:32.860Z,16.73
2022-12-14T06:28:30.155Z,18.83
2022-12-14T06:33:28.519Z,20.73
2022-12-14T06:38:26.062Z,16.02
2022-12-14T06:43:26.734Z,15.13
2022-12-14T06:48:24.358Z,22.98
2022-12-14T06:53:21.815Z,14.50
2022-12-14T06:58:19.115Z,18.33
2022-12-14T07:03:16.362Z,18.90
2022-12-14T07:08:13.614Z,13.48
2022-12-14T07:13:10.937Z,20.60
2022-12-14T07:18:08.492Z,19.10
2022-12-14T07:23:05.756Z,19.20
2022-12-14T07:28:02.966Z,26.33
2022-12-14T07:33:00.201Z,20.20
2022-12-14T07:37:57.657Z,19.48
2022-12-14T07:42:54.971Z,14.68
2022-12-14T07:47:52.511Z,17.23
2022-12-14T07:52:49.768Z,27.63
2022-12-14T07:57:48.262Z,19.98
2022-12-14T08:02:55.031Z,15.57
2022-12-14T08:07:52.394Z,14.32
2022-12-14T08:12:52.718Z,15.02
2022-12-14T08:17:50.001Z,16.33
2022-12-14T08:22:47.406Z,15.27
2022-12-14T08:27:44.719Z,15.80
2022-12-14T08:32:42.009Z,18.30
2022-12-14T08:37:44.191Z,27.08
2022-12-14T08:42:44.863Z,26.17
2022-12-14T08:47:42.125Z,26.00
2022-12-14T08:52:39.671Z,19.77
2022-12-14T08:57:37.190Z,18.55
2022-12-14T09:02:34.454Z,17.85
2022-12-14T09:07:32.432Z,16.10
2022-12-14T09:12:29.914Z,14.23
2022-12-14T09:17:27.140Z,26.63
2022-12-14T09:22:24.886Z,19.23
2022-12-14T09:27:22.664Z,15.07
2022-12-14T09:32:19.919Z,14.52
2022-12-14T09:37:17.356Z,20.15
2022-12-14T09:43:01.601Z,14.27
2022-12-14T09:48:13.602Z,15.60
2022-12-14T09:53:15.628Z,11.90
2022-12-14T09:58:21.266Z,16.13
2022-12-14T10:03:46.210Z,27.65
2022-12-14T10:08:54.919Z,16.60
2022-12-14T10:14:05.230Z,16.88
2022-12-14T10:19:32.497Z,14.60
2022-12-14T10:24:43.182Z,30.35
2022-12-14T10:29:46.835Z,21.27
2022-12-14T10:34:44.423Z,22.45
2022-12-14T10:40:11.337Z,19.80
2022-12-14T10:45:40.162Z,16.95
2022-12-14T10:50:57.010Z,14.95
2022-12-14T10:56:04.118Z,14.32
2022-12-14T11:01:02.236Z,13.45
2022-12-14T11:06:12.931Z,32.05
2022-12-14T11:11:18.989Z,15.32
2022-12-14T11:16:38.764Z,10.85
2022-12-14T11:21:39.451Z,16.10
2022-12-14T11:26:43.092Z,15.98
2022-12-14T11:31:45.879Z,16.08
2022-12-14T11:36:43.371Z,11.98
2022-12-14T11:41:46.823Z,16.38
2022-12-14T11:47:01.286Z,18.10
2022-12-14T11:52:06.087Z,9.82
2022-12-14T11:57:09.168Z,14.18
2022-12-14T12:02:18.246Z,11.38
2022-12-14T12:07:33.996Z,10.75
2022-12-14T12:12:34.488Z,11.48
2022-12-14T12:17:42.426Z,9.77
2022-12-14T12:22:45.867Z,12.43
2022-12-14T12:27:57.776Z,10.90
2022-12-14T12:32:59.752Z,10.00
2022-12-14T12:38:02.578Z,22.33
2022-12-14T12:43:24.017Z,17.40
2022-12-14T12:48:36.381Z,10.73
2022-12-14T12:53:45.006Z,13.82
2022-12-14T12:58:52.168Z,11.25
2022-12-14T13:03:53.834Z,19.55
2022-12-14T13:08:57.382Z,10.38
2022-12-14T13:14:00.893Z,9.38
2022-12-14T13:19:25.319Z,7.88
2022-12-14T13:24:23.369Z,9.30
2022-12-14T13:29:39.230Z,9.98
2022-12-14T13:35:04.905Z,8.80
2022-12-14T13:40:39.746Z,11.95
2022-12-14T13:45:42.803Z,15.30
2022-12-14T13:50:57.469Z,13.02
2022-12-14T13:56:00.430Z,14.60
2022-12-14T14:01:08.476Z,15.55
2022-12-14T14:06:39.542Z,14.18
2022-12-14T14:11:38.119Z,14.07
2022-12-14T14:16:43.094Z,20.27
2022-12-14T14:22:25.829Z,16.58
2022-12-14T14:27:25.410Z,20.75
2022-12-14T14:32:37.169Z,17.70
2022-12-14T14:37:36.837Z,21.15
2022-12-14T14:42:46.216Z,28.58
2022-12-14T14:47:43.464Z,23.20
2022-12-14T14:52:43.332Z,17.20
2022-12-14T14:58:02.652Z,17.40
2022-12-14T15:03:00.440Z,17.15
2022-12-14T15:07:58.969Z,28.17
2022-12-14T15:13:02.401Z,22.52
2022-12-14T15:18:23.878Z,17.92
2022-12-14T15:23:22.016Z,17.98
2022-12-14T15:28:24.171Z,19.85
2022-12-14T15:33:35.906Z,48.25
2022-12-14T15:38:35.522Z,44.47
2022-12-14T15:43:36.088Z,22.70
2022-12-14T15:48:35.173Z,14.63
2022-12-14T15:53:50.135Z,20.80
2022-12-14T15:58:49.193Z,22.13
2022-12-14T16:03:50.507Z,46.70
2022-12-14T16:09:05.872Z,47.22
2022-12-14T16:14:18.660Z,47.97
2022-12-14T16:19:28.845Z,48.13
2022-12-14T16:24:27.360Z,68.40
2022-12-14T16:29:28.859Z,53.95
2022-12-14T16:34:27.657Z,30.08
2022-12-14T16:39:32.879Z,27.63
2022-12-14T16:44:30.761Z,28.50
2022-12-14T16:49:56.942Z,24.55
2022-12-14T16:55:15.714Z,26.33
2022-12-14T17:00:25.324Z,32.33
2022-12-14T17:05:25.189Z,25.38
2022-12-14T17:15:23.448Z,30.15
2022-12-14T17:20:33.446Z,28.85
2022-12-14T17:25:32.531Z,41.90
2022-12-14T17:30:30.129Z,29.50
2022-12-14T17:35:32.322Z,33.20
2022-12-14T17:40:32.814Z,31.30
2022-12-14T17:45:33.627Z,36.17
2022-12-14T17:50:32.343Z,35.10
2022-12-14T17:55:29.833Z,34.28
2022-12-14T18:00:49.266Z,29.58
2022-12-14T18:05:52.513Z,31.60
2022-12-14T18:11:02.449Z,32.25
2022-12-14T18:16:00.892Z,46.72
2022-12-14T18:21:02.452Z,41.85
2022-12-14T18:26:00.502Z,42.25
2022-12-14T18:31:02.358Z,32.05
2022-12-14T18:35:59.742Z,40.45
2022-12-14T18:40:58.944Z,32.72
2022-12-14T18:45:57.071Z,31.27
2022-12-14T18:50:55.346Z,30.73
2022-12-14T18:55:53.459Z,44.72
2022-12-14T19:00:52.838Z,40.80
2022-12-14T19:05:50.478Z,44.35
2022-12-14T19:10:48.219Z,41.30
2022-12-14T19:15:45.760Z,31.55
2022-12-14T19:20:43.032Z,44.20
2022-12-14T19:25:41.685Z,50.25
2022-12-14T19:30:39.268Z,62.10
2022-12-14T19:35:40.703Z,50.20
2022-12-14T19:40:39.263Z,37.92
2022-12-14T19:45:39.701Z,36.55
2022-12-14T19:50:37.502Z,35.65
2022-12-14T19:55:35.955Z,38.53
2022-12-14T20:00:33.324Z,36.05
2022-12-14T20:05:30.605Z,40.47
2022-12-14T20:10:28.410Z,43.78
2022-12-14T20:15:25.623Z,33.15
2022-12-14T20:20:23.319Z,45.63
2022-12-14T20:25:20.602Z,38.65
2022-12-14T20:30:18.508Z,43.50
2022-12-14T20:35:18.779Z,35.65
2022-12-14T20:40:16.115Z,32.95
2022-12-14T20:45:13.548Z,37.53
2022-12-14T20:50:10.870Z,25.65
2022-12-14T20:55:08.569Z,52.60
2022-12-14T21:00:06.966Z,43.38
2022-12-14T21:05:04.724Z,39.97
2022-12-14T21:10:01.863Z,49.83
2022-12-14T21:14:59.629Z,34.70
2022-12-14T21:19:57.857Z,36.85
2022-12-14T21:25:04.745Z,56.05
2022-12-14T21:30:04.049Z,46.65
2022-12-14T21:35:01.313Z,37.25
2022-12-14T21:39:58.785Z,38.63
2022-12-14T21:44:56.967Z,44.85
2022-12-14T21:49:54.593Z,27.98
2022-12-14T21:54:52.022Z,39.03
2022-12-14T21:59:49.644Z,25.30
2022-12-14T22:04:47.206Z,33.60
2022-12-14T22:09:45.108Z,29.23
2022-12-14T22:14:48.186Z,26.02
2022-12-14T22:19:45.408Z,43.58
2022-12-14T22:24:44.073Z,36.28
2022-12-14T22:29:41.880Z,37.15
2022-12-14T22:34:39.294Z,28.52
2022-12-14T22:39:36.497Z,27.65
2022-12-14T22:44:33.796Z,25.67
2022-12-14T22:49:34.196Z,22.75
2022-12-14T22:54:31.859Z,30.40
2022-12-14T22:59:54.571Z,31.98
2022-12-14T23:04:51.982Z,29.17
2022-12-14T23:10:07.829Z,22.95
2022-12-14T23:15:24.611Z,31.73
2022-12-14T23:20:40.382Z,38.53
2022-12-14T23:25:56.137Z,33.58
2022-12-14T23:31:12.145Z,30.80
2022-12-14T23:36:28.014Z,25.85
2022-12-14T23:41:43.855Z,34.47
2022-12-14T23:46:59.709Z,36.10
2022-12-14T23:52:15.463Z,37.88
2022-12-14T23:57:31.656Z,32.80
